Airfield :
LOGIN :

Register | Disclaimer

   EN    FR    IT 

 










Legend :    VFR   Marginal VFR   IFR   Intensive IFR   Very Intensive IFR
Visi :
Ceiling :
>= 8 km
>= 3000ft
5 to 8 km
1000 to 3000 ft
1500m to 5 km
500 to 1000 ft
800 to 1500m
200 to 500 ft
< 800m
< 200 ft
Symbols :   Thunderstorms  Fog  Heavy snow  Heavy precipitations  Wind > 20 kt
SIGMETs :     Misc.  Thunderstorms  Icing  Turbulence  Mountain Waves  Volcanic Ashes







- Airport Elevation : 876 ft
- IATA code : MBX


LJMB - Maribor

CURRENT METAR :
  • 240530Z VRB01KT CAVOK 01/M00 Q1019 R32/CLRD//

EXPIRED METARs :
  • 240500Z 16002KT CAVOK 01/M01 Q1019
  • 240430Z AUTO 24001KT 9999 NCD 01/00 Q1019
  • 240400Z AUTO 00000KT 9999 NSC 02/02 Q1019
  • 240330Z AUTO 33002KT 9999 NSC 02/01 Q1019
  • 240300Z AUTO 00000KT 9999 NCD 01/00 Q1019

TAF TAF LJMB
Valid from the 24 at 06:00 until the 25 at 06:00 UTC


240500Z 2406/2506 34003KT CAVOK
TEMPO 2409/2424 20005KT
BECMG 2500/2503 20007KT SCT035 BKN250
No reported NOTAMs for that airfield.



MET'MAP, your aeronautical weather chart ! - Copyright ORBIFLY December 2007 - Disclaimer

ORBIFLY MET'MAP TEAM :

Programming & Development : Alexandra Zaïnal
Concept & Development : Baudouin d'Aumeries
Co-Development & Prog : Marc-Olivier Méhu
Technical & hardware support : Manuel Goepfert

Contact : metmap@orbifly.com




SOURCES & CREDITS :

   NOAA